Time;durP1;ratioP1;P1;durP2;ratioP2;P2;SDS_P1;SDS_P2;PMS_P1;PMS_P2;Temp;Humidity;BMP_temperature;BMP_pressure;BME280_temperature;BME280_humidity;BME280_pressure;Samples;Min_cycle;Max_cycle;Signal;HPM_P1;HPM_P2
2022/06/19 00:01:31;;;;;;;15.40;2.88;;;;;;;14.71;77.53;100926.94;5050915;28;20358;-68
2022/06/19 00:03:56;;;;;;;14.02;3.08;;;;;;;14.74;77.68;100915.09;5051228;28;20040;-69
2022/06/19 00:06:23;;;;;;;11.50;2.17;;;;;;;14.64;77.57;100916.81;5050232;28;20657;-69
2022/06/19 00:08:51;;;;;;;13.93;3.75;;;;;;;14.63;77.86;100931.19;5050928;28;20394;-69
2022/06/19 00:11:19;;;;;;;20.48;3.05;;;;;;;14.60;77.66;100921.53;5047868;28;20044;-69
2022/06/19 00:13:45;;;;;;;9.13;3.00;;;;;;;14.58;77.27;100917.28;5050692;28;20049;-70
2022/06/19 00:16:11;;;;;;;13.27;2.28;;;;;;;14.52;78.01;100894.47;5049341;28;20048;-69
2022/06/19 00:18:38;;;;;;;8.43;2.60;;;;;;;14.53;77.97;100890.81;5050182;28;20644;-68
2022/06/19 00:21:06;;;;;;;15.00;3.30;;;;;;;14.48;77.81;100888.50;5048900;28;20049;-69
2022/06/19 00:23:31;;;;;;;23.77;2.72;;;;;;;14.47;78.20;100893.97;5050044;28;20044;-69
2022/06/19 00:25:57;;;;;;;6.97;2.38;;;;;;;14.53;77.90;100901.56;5048229;28;20812;-69
2022/06/19 00:28:23;;;;;;;11.75;2.42;;;;;;;14.46;78.09;100898.47;5049934;28;20039;-69
2022/06/19 00:30:49;;;;;;;8.95;2.70;;;;;;;14.49;77.49;100883.97;5050081;28;20095;-69
2022/06/19 00:33:14;;;;;;;14.48;2.83;;;;;;;14.42;77.89;100872.00;5050376;28;20045;-69
2022/06/19 00:35:40;;;;;;;18.52;2.92;;;;;;;14.34;79.01;100880.63;5050111;28;20049;-69
2022/06/19 00:38:05;;;;;;;10.65;2.40;;;;;;;14.35;78.91;100886.84;5048520;28;20041;-69
2022/06/19 00:40:31;;;;;;;13.27;3.42;;;;;;;14.37;78.85;100866.16;5048084;28;20036;-68
2022/06/19 00:42:57;;;;;;;9.90;2.45;;;;;;;14.35;79.26;100860.88;5064613;28;20147;-68
2022/06/19 00:45:50;;;;;;;17.52;3.00;;;;;;;14.34;79.58;100863.69;5048809;28;20093;-69
2022/06/19 00:48:20;;;;;;;11.70;2.70;;;;;;;14.33;79.81;100867.34;5038158;28;20131;-69
2022/06/19 00:50:48;;;;;;;12.50;2.63;;;;;;;14.32;80.02;100866.50;5050273;28;20074;-69
2022/06/19 00:53:22;;;;;;;11.20;2.17;;;;;;;14.31;80.20;100863.94;5046846;28;20215;-69
2022/06/19 00:55:50;;;;;;;20.05;3.35;;;;;;;14.32;80.22;100869.19;5041583;28;20032;-69
2022/06/19 00:58:31;;;;;;;13.07;3.38;;;;;;;14.30;80.80;100868.44;5051134;28;20052;-68
2022/06/19 01:01:11;;;;;;;11.48;2.20;;;;;;;14.32;80.27;100876.38;5049794;28;20032;-69
2022/06/19 01:03:39;;;;;;;9.00;2.58;;;;;;;14.31;80.46;100875.53;5054548;28;20106;-69
2022/06/19 01:06:05;;;;;;;12.57;3.50;;;;;;;14.24;80.95;100885.88;5052405;28;20067;-68
2022/06/19 01:08:31;;;;;;;13.88;2.70;;;;;;;14.29;80.68;100887.34;5055218;28;20051;-68
2022/06/19 01:10:56;;;;;;;10.35;3.03;;;;;;;14.29;80.59;100900.75;5054722;28;20132;-69
2022/06/19 01:13:27;;;;;;;11.27;2.25;;;;;;;14.34;80.28;100903.94;5054083;28;20070;-69
2022/06/19 01:15:53;;;;;;;20.73;2.90;;;;;;;14.24;80.83;100904.66;5055127;28;20041;-69
2022/06/19 01:18:20;;;;;;;10.07;2.28;;;;;;;14.25;80.51;100900.97;5054633;28;20152;-69
2022/06/19 01:20:46;;;;;;;22.58;4.63;;;;;;;14.17;81.29;100884.66;5055014;28;20328;-69
2022/06/19 01:23:27;;;;;;;8.48;2.20;;;;;;;14.13;80.87;100879.66;5053968;28;20418;-69
2022/06/19 01:25:53;;;;;;;11.88;2.92;;;;;;;14.15;81.09;100875.84;5054961;28;20048;-69
2022/06/19 01:31:19;;;;;;;11.35;2.97;;;;;;;14.16;79.85;100864.19;5053621;28;20047;-69
2022/06/19 01:33:49;;;;;;;13.35;2.78;;;;;;;14.17;79.50;100848.94;5054087;28;20041;-68
2022/06/19 01:36:19;;;;;;;14.55;2.85;;;;;;;14.17;79.63;100849.78;5053233;28;20047;-69
2022/06/19 01:38:49;;;;;;;19.38;2.58;;;;;;;14.22;79.14;100850.28;5053598;28;20248;-69
2022/06/19 01:41:21;;;;;;;19.60;4.38;;;;;;;14.24;79.68;100869.78;5052790;28;20386;-69
2022/06/19 01:43:47;;;;;;;10.93;2.55;;;;;;;14.34;79.25;100949.53;5054606;28;20044;-69
2022/06/19 01:46:15;;;;;;;16.90;3.50;;;;;;;14.43;79.39;101050.78;5053171;28;20041;-70
2022/06/19 01:48:41;;;;;;;13.00;3.25;;;;;;;14.52;78.43;101042.06;5053961;28;20432;-69
2022/06/19 01:51:07;;;;;;;13.68;2.60;;;;;;;14.44;77.42;100954.06;5053194;28;20173;-69
2022/06/19 01:53:56;;;;;;;18.65;3.35;;;;;;;14.34;77.29;100954.91;5053186;28;20037;-68
2022/06/19 01:56:22;;;;;;;10.70;2.22;;;;;;;14.25;76.44;100981.44;5041763;28;20619;-68
2022/06/19 01:58:50;;;;;;;15.30;2.17;;;;;;;14.22;74.62;100968.28;5053745;28;20043;-69
2022/06/19 02:01:16;;;;;;;7.47;1.90;;;;;;;14.19;72.33;100932.81;5053051;28;20131;-68
2022/06/19 02:03:49;;;;;;;18.95;2.63;;;;;;;14.17;69.84;100919.53;5052394;28;20048;-69
2022/06/19 02:06:18;;;;;;;16.42;2.58;;;;;;;14.12;69.93;100908.28;5052922;28;20044;-68
2022/06/19 02:08:44;;;;;;;15.00;2.22;;;;;;;14.11;69.68;100919.16;5052447;28;20056;-68
2022/06/19 02:11:11;;;;;;;9.80;2.15;;;;;;;14.11;67.87;100930.72;5052577;28;20036;-68
2022/06/19 02:13:39;;;;;;;8.90;1.85;;;;;;;14.22;66.04;100916.47;5052955;28;20044;-68
2022/06/19 02:16:10;;;;;;;9.27;1.95;;;;;;;14.11;66.97;100901.22;5052177;28;20056;-68
2022/06/19 02:18:39;;;;;;;14.18;2.65;;;;;;;14.20;65.79;100911.22;5052687;28;20036;-68
2022/06/19 02:21:07;;;;;;;11.50;2.40;;;;;;;14.16;65.87;100906.25;5051200;28;20793;-68
2022/06/19 02:23:35;;;;;;;16.17;2.60;;;;;;;14.12;66.97;100910.97;5052022;28;20642;-69
2022/06/19 02:26:02;;;;;;;5.85;2.22;;;;;;;14.10;66.53;100925.47;5052259;28;20036;-68
2022/06/19 02:28:28;;;;;;;11.77;2.28;;;;;;;14.09;66.98;100943.38;5039043;28;20060;-67
2022/06/19 02:30:54;;;;;;;14.98;2.40;;;;;;;14.08;67.55;100946.19;5052823;28;20119;-68
2022/06/19 02:33:26;;;;;;;10.10;2.55;;;;;;;14.11;66.87;100944.13;5051363;28;20031;-67
2022/06/19 02:35:51;;;;;;;8.23;2.00;;;;;;;14.10;67.34;100954.97;5051131;28;20151;-69
2022/06/19 02:38:19;;;;;;;18.48;2.35;;;;;;;14.11;67.70;100957.53;5049807;28;20051;-68
2022/06/19 02:41:17;;;;;;;12.20;1.95;;;;;;;14.01;69.65;100964.59;5051392;28;20040;-68
2022/06/19 02:43:43;;;;;;;12.90;1.75;;;;;;;14.01;68.29;100953.84;5050757;28;20052;-68
2022/06/19 02:46:08;;;;;;;5.80;1.88;;;;;;;14.00;68.80;100947.59;5051157;28;20041;-69
2022/06/19 02:48:34;;;;;;;9.30;1.90;;;;;;;14.06;68.51;100957.03;5052327;28;20521;-68
2022/06/19 02:51:02;;;;;;;7.22;2.35;;;;;;;14.00;69.66;100976.25;5051807;28;20087;-69
2022/06/19 02:53:29;;;;;;;11.40;2.92;;;;;;;14.01;69.57;100964.59;5051486;28;20036;-68
2022/06/19 02:55:55;;;;;;;12.73;2.40;;;;;;;14.00;70.87;100968.22;5051449;28;20050;-69
2022/06/19 02:58:21;;;;;;;8.93;1.55;;;;;;;13.88;71.98;100953.06;5050204;28;20032;-68
2022/06/19 03:00:48;;;;;;;16.63;1.98;;;;;;;13.85;72.82;100945.25;5084887;28;20779;-68
2022/06/19 03:03:30;;;;;;;10.55;2.05;;;;;;;13.82;74.31;100942.81;5052501;28;20471;-68
2022/06/19 03:05:56;;;;;;;12.23;1.63;;;;;;;13.83;74.55;100953.41;5052789;28;20047;-68
2022/06/19 03:08:21;;;;;;;13.50;2.67;;;;;;;13.87;74.23;100952.22;5050497;28;20467;-68
2022/06/19 03:10:47;;;;;;;21.65;2.80;;;;;;;13.92;74.41;100976.00;5085453;28;20114;-68
2022/06/19 03:13:12;;;;;;;14.82;2.70;;;;;;;13.89;75.23;101025.31;5052535;28;20040;-68
2022/06/19 03:15:38;;;;;;;18.88;2.60;;;;;;;13.99;75.00;101039.75;5052356;28;20037;-68
2022/06/19 03:18:03;;;;;;;12.52;2.42;;;;;;;13.91;75.41;101012.66;5052042;28;20044;-68
2022/06/19 03:20:29;;;;;;;11.20;2.10;;;;;;;13.91;74.98;100979.66;5051620;28;20115;-68
2022/06/19 03:22:55;;;;;;;11.13;2.30;;;;;;;13.89;74.20;100978.91;5052492;28;20048;-68
2022/06/19 03:25:22;;;;;;;12.48;2.55;;;;;;;13.90;74.00;100949.28;5050927;28;20139;-68
2022/06/19 03:27:48;;;;;;;13.93;2.55;;;;;;;13.96;73.36;100956.03;5052305;28;20040;-67
2022/06/19 03:30:15;;;;;;;9.35;2.42;;;;;;;13.94;73.44;100966.84;5050879;28;20035;-68
2022/06/19 03:32:41;;;;;;;15.65;1.80;;;;;;;14.06;72.05;100991.03;5051523;28;20187;-68
2022/06/19 03:35:07;;;;;;;10.45;2.28;;;;;;;14.16;72.44;101083.25;5050677;28;20044;-69
2022/06/19 03:37:32;;;;;;;9.82;2.03;;;;;;;14.25;72.17;101153.13;5067028;28;20048;-68
2022/06/19 03:39:58;;;;;;;15.68;3.03;;;;;;;14.24;72.70;101107.66;5051379;28;20028;-69
2022/06/19 03:42:23;;;;;;;10.63;1.90;;;;;;;14.15;72.03;101038.59;5048038;28;20548;-69
2022/06/19 03:44:49;;;;;;;13.10;2.13;;;;;;;14.08;71.45;101003.34;5035083;28;20546;-70
2022/06/19 03:47:20;;;;;;;11.48;2.95;;;;;;;14.03;71.51;101035.03;5037900;28;20062;-70
2022/06/19 03:49:46;;;;;;;13.07;1.97;;;;;;;14.04;71.06;101036.72;5050307;28;20040;-69
2022/06/19 03:52:11;;;;;;;11.10;2.15;;;;;;;13.92;71.42;101030.47;5051127;28;20051;-70
2022/06/19 03:54:36;;;;;;;7.10;1.35;;;;;;;13.90;71.28;101028.84;5051159;28;20044;-70
2022/06/19 03:57:03;;;;;;;7.05;1.85;;;;;;;13.99;71.09;101020.13;5050440;28;20074;-69
2022/06/19 03:59:28;;;;;;;9.73;1.60;;;;;;;13.83;72.59;100990.09;5051478;28;20040;-69
2022/06/19 04:01:54;;;;;;;16.52;1.67;;;;;;;13.90;72.75;100986.81;5051187;28;20047;-69
2022/06/19 04:04:19;;;;;;;9.88;1.92;;;;;;;13.95;73.55;101029.38;5082770;28;20044;-70
2022/06/19 04:06:45;;;;;;;10.18;2.03;;;;;;;14.05;73.43;101016.97;5066849;28;20041;-69
2022/06/19 04:09:15;;;;;;;9.02;1.83;;;;;;;14.09;73.42;100998.84;5051401;28;20051;-69
2022/06/19 04:11:41;;;;;;;9.82;1.77;;;;;;;14.09;73.92;101007.75;5052092;28;20051;-68
2022/06/19 04:14:11;;;;;;;6.00;1.80;;;;;;;14.10;74.31;100990.66;5037124;28;20036;-69
2022/06/19 04:16:37;;;;;;;12.60;2.85;;;;;;;14.05;75.49;100975.91;5050961;28;20056;-69
2022/06/19 04:19:05;;;;;;;12.40;2.58;;;;;;;14.12;75.41;100971.81;5049778;28;20044;-69
2022/06/19 04:21:33;;;;;;;8.05;1.67;;;;;;;14.10;75.64;100981.78;5050772;28;20032;-71
2022/06/19 04:24:03;;;;;;;15.32;2.35;;;;;;;14.08;76.04;100962.28;5065623;28;20169;-70
2022/06/19 04:26:30;;;;;;;5.47;1.58;;;;;;;14.12;76.37;100908.28;5050595;28;20782;-69
2022/06/19 04:28:56;;;;;;;20.00;3.47;;;;;;;14.24;75.60;100938.66;5050695;28;20041;-69
2022/06/19 04:31:22;;;;;;;6.93;1.50;;;;;;;14.29;75.62;100970.50;5051568;28;20071;-68
2022/06/19 04:33:48;;;;;;;15.38;2.13;;;;;;;14.26;75.82;100936.75;5055552;28;20059;-69
2022/06/19 04:36:17;;;;;;;9.73;2.78;;;;;;;14.31;75.49;100921.13;5086643;28;20848;-69
2022/06/19 04:38:44;;;;;;;14.63;2.30;;;;;;;14.50;75.26;100917.88;5055222;28;20048;-68
2022/06/19 04:41:23;;;;;;;11.95;1.80;;;;;;;14.49;74.97;100908.13;5052814;28;20025;-68
2022/06/19 04:43:50;;;;;;;14.95;2.55;;;;;;;14.40;74.04;100885.53;5087600;28;20585;-69
2022/06/19 04:46:16;;;;;;;7.70;1.40;;;;;;;14.38;73.68;100862.50;5052201;28;20663;-69
2022/06/19 04:48:41;;;;;;;14.95;2.40;;;;;;;14.41;73.59;100833.59;5055073;28;20479;-69
2022/06/19 04:51:07;;;;;;;10.70;1.70;;;;;;;14.49;72.91;100822.25;5054435;28;20051;-68
2022/06/19 04:53:34;;;;;;;11.40;1.88;;;;;;;14.67;71.67;100828.84;5055567;28;20036;-69
2022/06/19 04:56:00;;;;;;;16.60;2.15;;;;;;;15.10;70.57;100806.53;5054057;28;20145;-67
2022/06/19 04:58:25;;;;;;;14.50;2.25;;;;;;;15.34;69.77;100794.72;5053357;28;20367;-67
2022/06/19 05:00:52;;;;;;;15.95;2.17;;;;;;;16.04;67.33;100778.78;5052590;28;20147;-68
2022/06/19 05:03:20;;;;;;;10.38;2.10;;;;;;;16.14;66.89;100778.00;5054529;28;20737;-68
2022/06/19 05:05:46;;;;;;;18.95;3.47;;;;;;;16.57;65.31;100761.59;5054728;28;20303;-68
2022/06/19 05:08:11;;;;;;;7.43;1.60;;;;;;;17.22;63.86;100754.75;5053871;28;20147;-67
2022/06/19 05:10:37;;;;;;;16.30;4.80;;;;;;;17.19;63.65;100759.56;5054160;28;20043;-67
2022/06/19 05:13:05;;;;;;;17.88;2.58;;;;;;;16.71;64.22;100752.25;5053596;28;20047;-68
2022/06/19 05:15:31;;;;;;;11.43;2.58;;;;;;;17.16;64.15;100767.91;5053513;28;20087;-68
2022/06/19 05:17:57;;;;;;;13.48;2.00;;;;;;;17.56;61.92;100748.88;5053345;28;20063;-68
2022/06/19 05:20:23;;;;;;;7.65;1.98;;;;;;;17.02;62.52;100744.97;5037887;28;20462;-68
2022/06/19 05:22:48;;;;;;;10.65;2.45;;;;;;;16.99;62.60;100731.75;5036071;28;20059;-68
2022/06/19 05:25:14;;;;;;;14.23;2.13;;;;;;;17.71;61.26;100728.53;5035891;28;20040;-68
2022/06/19 05:27:40;;;;;;;15.50;3.53;;;;;;;18.06;58.68;100730.59;5037526;28;20056;-68
2022/06/19 05:30:07;;;;;;;12.30;3.17;;;;;;;17.26;61.17;100728.34;5050967;28;20082;-68
2022/06/19 05:32:32;;;;;;;11.07;2.20;;;;;;;16.89;62.50;100741.69;5051568;28;20040;-68
2022/06/19 05:34:58;;;;;;;12.20;2.38;;;;;;;17.48;60.77;100754.16;5052099;28;20040;-68
2022/06/19 05:37:24;;;;;;;13.73;2.97;;;;;;;17.72;58.96;100761.75;5046594;28;20032;-68
2022/06/19 05:39:50;;;;;;;9.38;2.25;;;;;;;17.91;57.66;100766.28;5069076;28;20044;-68
2022/06/19 05:42:16;;;;;;;13.43;1.88;;;;;;;17.51;58.92;100772.72;5033581;28;20032;-68
2022/06/19 05:44:41;;;;;;;17.25;2.53;;;;;;;18.10;58.15;100806.72;5045596;28;20025;-68
2022/06/19 05:47:07;;;;;;;11.82;2.75;;;;;;;18.07;57.04;100842.97;5051650;28;20060;-69
2022/06/19 05:49:34;;;;;;;5.90;1.33;;;;;;;18.34;56.35;100827.81;5054990;28;20028;-68
2022/06/19 05:52:01;;;;;;;15.07;2.53;;;;;;;18.74;56.08;100830.22;5072594;28;20029;-68
2022/06/19 05:54:27;;;;;;;13.02;1.73;;;;;;;18.99;55.91;100830.50;5039082;28;20032;-68
2022/06/19 05:56:53;;;;;;;5.63;1.80;;;;;;;19.25;54.81;100828.75;5071810;28;20387;-68
2022/06/19 05:59:18;;;;;;;8.10;2.40;;;;;;;19.33;54.16;100841.50;5051945;28;20036;-68
2022/06/19 06:01:44;;;;;;;13.05;2.00;;;;;;;18.59;55.67;100856.00;5053078;28;20399;-68
2022/06/19 06:04:10;;;;;;;10.93;2.20;;;;;;;18.76;55.63;100884.09;5050916;28;20285;-68
2022/06/19 06:06:35;;;;;;;13.68;2.50;;;;;;;18.93;55.01;100898.69;5052190;28;20115;-67
2022/06/19 06:09:01;;;;;;;11.40;2.80;;;;;;;19.72;54.84;100903.44;5050131;28;20229;-68
2022/06/19 06:11:27;;;;;;;13.20;2.42;;;;;;;19.87;54.49;100923.53;5083871;28;20712;-67
2022/06/19 06:13:52;;;;;;;11.73;2.90;;;;;;;20.64;52.47;100939.06;5051985;28;20040;-68
2022/06/19 06:16:20;;;;;;;14.57;2.20;;;;;;;20.64;51.74;100947.19;5051524;28;20043;-68
2022/06/19 06:18:46;;;;;;;6.35;1.90;;;;;;;20.15;52.92;100940.53;5084232;28;20049;-69
2022/06/19 06:21:20;;;;;;;8.80;2.17;;;;;;;20.57;54.18;100937.97;5050867;28;20151;-68
2022/06/19 06:23:46;;;;;;;11.20;2.20;;;;;;;19.61;51.87;100955.91;5051966;28;20056;-68
2022/06/19 06:26:27;;;;;;;12.20;2.38;;;;;;;20.34;51.83;100959.31;5051088;28;20055;-68
2022/06/19 06:28:54;;;;;;;6.68;2.33;;;;;;;19.29;52.15;100951.81;5051492;28;20550;-68
2022/06/19 06:31:20;;;;;;;10.40;2.25;;;;;;;20.34;49.87;100940.34;5049089;28;20044;-69
2022/06/19 06:33:46;;;;;;;5.60;1.73;;;;;;;19.77;50.30;100963.34;5051671;28;20033;-68
2022/06/19 06:36:12;;;;;;;10.63;1.48;;;;;;;19.98;49.81;100974.75;5050281;28;20045;-68
2022/06/19 06:38:38;;;;;;;7.47;1.85;;;;;;;19.05;54.46;100989.38;5050824;28;20051;-68
2022/06/19 06:41:05;;;;;;;9.98;1.98;;;;;;;18.97;53.82;100989.25;5051128;28;20043;-69
2022/06/19 06:43:31;;;;;;;10.93;2.25;;;;;;;18.91;55.00;100989.84;5051161;28;20040;-68
2022/06/19 06:46:07;;;;;;;8.55;1.75;;;;;;;17.97;55.20;100998.63;5066064;28;20038;-68
2022/06/19 06:48:33;;;;;;;9.13;2.42;;;;;;;17.95;54.97;100988.97;5049566;28;20560;-68
2022/06/19 06:50:59;;;;;;;8.80;1.65;;;;;;;18.15;53.80;101006.00;5050979;28;20074;-68
2022/06/19 06:53:24;;;;;;;9.93;2.47;;;;;;;18.44;54.12;101041.09;5049065;28;20056;-69
2022/06/19 06:55:55;;;;;;;5.82;1.70;;;;;;;18.43;53.70;101034.00;5050083;28;20032;-69
2022/06/19 06:58:20;;;;;;;6.10;2.03;;;;;;;18.86;52.84;101037.06;5048632;28;20062;-68
2022/06/19 07:00:46;;;;;;;7.07;1.80;;;;;;;19.66;51.20;101062.69;5079092;28;20887;-68
2022/06/19 07:03:11;;;;;;;8.15;1.52;;;;;;;19.99;47.45;101082.03;5065058;28;20581;-68
2022/06/19 07:05:36;;;;;;;4.00;1.35;;;;;;;19.32;47.89;101077.75;5047957;28;20040;-68
2022/06/19 07:08:02;;;;;;;8.63;1.60;;;;;;;18.91;48.85;101085.28;5064473;28;20037;-68
2022/06/19 07:10:27;;;;;;;8.73;1.50;;;;;;;18.71;49.71;101100.66;5050607;28;20051;-68
2022/06/19 07:12:53;;;;;;;6.25;1.83;;;;;;;18.41;50.23;101142.13;5049352;28;20190;-68
2022/06/19 07:15:18;;;;;;;9.00;1.70;;;;;;;17.94;50.73;101150.00;5049110;28;20122;-68
2022/06/19 07:17:44;;;;;;;6.72;1.48;;;;;;;17.60;51.06;101158.34;5050472;28;20766;-68
2022/06/19 07:20:10;;;;;;;6.90;1.23;;;;;;;17.29;50.94;101170.13;5040460;28;20048;-68
2022/06/19 07:22:36;;;;;;;6.47;2.20;;;;;;;17.08;53.84;101162.03;5050389;28;20044;-68
2022/06/19 07:25:04;;;;;;;5.00;1.55;;;;;;;16.70;55.63;101136.47;5050320;28;20086;-69
2022/06/19 07:27:29;;;;;;;5.80;1.50;;;;;;;16.55;57.66;101135.94;5050056;28;20047;-68
2022/06/19 07:29:54;;;;;;;6.30;1.63;;;;;;;16.16;65.09;101164.28;5049702;28;20036;-68
2022/06/19 07:32:20;;;;;;;9.95;1.40;;;;;;;16.12;68.53;101164.72;5049856;28;20087;-68
2022/06/19 07:34:45;;;;;;;10.60;2.40;;;;;;;16.24;75.60;101161.84;5051161;28;20040;-69
2022/06/19 07:37:13;;;;;;;15.00;2.47;;;;;;;16.08;71.70;101165.94;5050152;28;20036;-68
2022/06/19 07:39:39;;;;;;;14.05;1.95;;;;;;;15.89;71.43;101158.47;5050963;28;20051;-68
2022/06/19 07:42:08;;;;;;;8.80;1.73;;;;;;;16.04;71.79;101157.25;5047330;28;20040;-69
2022/06/19 07:44:34;;;;;;;13.52;1.63;;;;;;;16.03;70.80;101161.78;5048706;28;20438;-68
2022/06/19 07:52:28;;;;;;;7.70;1.90;;;;;;;16.54;69.01;101187.22;5052887;28;20152;-69
2022/06/19 07:54:53;;;;;;;12.25;1.67;;;;;;;16.44;69.10;101211.34;5050996;28;20032;-68
2022/06/19 07:57:19;;;;;;;8.10;1.88;;;;;;;16.49;70.22;101216.34;5046821;28;20033;-69
2022/06/19 07:59:45;;;;;;;5.35;1.80;;;;;;;16.60;68.75;101212.78;5051080;28;20036;-68
2022/06/19 08:02:11;;;;;;;17.52;2.95;;;;;;;16.36;70.26;101229.94;5053593;28;20419;-68
2022/06/19 08:04:36;;;;;;;11.73;1.95;;;;;;;16.42;72.41;101236.69;5052100;28;20040;-68
2022/06/19 08:07:02;;;;;;;9.88;1.90;;;;;;;16.48;70.65;101234.34;5048951;28;20032;-68
2022/06/19 08:09:27;;;;;;;7.43;2.17;;;;;;;16.30;72.04;101204.41;5064101;28;20510;-68
2022/06/19 08:11:53;;;;;;;15.50;3.17;;;;;;;16.03;74.59;101207.50;5050394;28;20078;-68
2022/06/19 08:14:18;;;;;;;8.35;2.47;;;;;;;15.85;74.93;101208.97;5047107;28;20041;-70
2022/06/19 08:16:44;;;;;;;8.63;2.25;;;;;;;15.60;78.37;101222.59;5053647;28;20049;-70
2022/06/19 08:19:09;;;;;;;11.95;2.53;;;;;;;15.11;83.53;101211.16;5050265;28;20242;-70
2022/06/19 08:21:34;;;;;;;20.15;3.35;;;;;;;14.74;86.51;101221.97;5052363;28;20051;-71
2022/06/19 08:24:00;;;;;;;14.38;3.08;;;;;;;14.59;87.97;101193.59;5070841;28;20056;-70
2022/06/19 08:26:25;;;;;;;17.70;2.70;;;;;;;14.08;88.95;101155.34;5073689;28;20095;-71
2022/06/19 08:29:03;;;;;;;17.60;2.63;;;;;;;13.91;93.56;101135.16;5086263;28;20040;-70
2022/06/19 08:31:30;;;;;;;20.55;2.78;;;;;;;13.85;95.61;101124.84;5053793;28;20357;-70
2022/06/19 08:33:55;;;;;;;15.10;3.33;;;;;;;13.85;95.32;101132.88;5051362;28;20808;-69
2022/06/19 08:36:24;;;;;;;12.23;2.97;;;;;;;14.07;97.07;101148.28;5054705;28;20036;-70
2022/06/19 08:38:54;;;;;;;18.77;3.30;;;;;;;13.91;96.86;101140.50;5054083;28;20209;-69
2022/06/19 08:41:34;;;;;;;16.67;3.83;;;;;;;14.07;97.58;101159.88;5051903;28;20345;-69
2022/06/19 08:44:48;;;;;;;21.45;3.67;;;;;;;13.96;96.82;101184.78;5047741;28;20362;-70
2022/06/19 08:47:35;;;;;;;15.63;3.70;;;;;;;14.03;99.40;101144.97;5025569;28;20725;-69
2022/06/19 08:50:09;;;;;;;13.80;3.65;;;;;;;14.16;99.26;101159.19;5026247;28;20154;-70
2022/06/19 08:52:43;;;;;;;17.10;4.20;;;;;;;14.08;97.65;101172.28;5024888;28;20062;-70
2022/06/19 08:55:34;;;;;;;21.38;3.45;;;;;;;14.09;97.21;101219.59;5022699;28;20388;-69
2022/06/19 08:58:21;;;;;;;14.80;3.38;;;;;;;13.92;97.91;101212.78;5024408;28;20138;-69
2022/06/19 09:01:10;;;;;;;10.32;2.58;;;;;;;13.58;99.60;101225.00;5025364;28;20521;-69
2022/06/19 09:06:45;;;;;;;13.45;3.33;;;;;;;14.05;100.00;101223.47;5003512;28;20883;-69
2022/06/19 09:09:32;;;;;;;18.20;3.40;;;;;;;13.80;100.00;101178.78;4999051;28;20057;-69
2022/06/19 09:12:08;;;;;;;10.65;3.13;;;;;;;13.64;100.00;101077.19;4996420;28;20181;-69
2022/06/19 09:14:41;;;;;;;21.08;3.80;;;;;;;13.63;100.00;101019.22;4987494;28;20049;-69
2022/06/19 09:17:11;;;;;;;18.35;3.30;;;;;;;14.07;99.80;101043.69;5000923;28;20057;-69
2022/06/19 09:19:45;;;;;;;15.02;3.47;;;;;;;14.15;98.88;101076.16;5004918;28;20066;-69
2022/06/19 09:22:40;;;;;;;12.85;2.70;;;;;;;14.12;98.17;101092.47;5003032;28;20057;-69
2022/06/19 09:25:35;;;;;;;20.70;3.90;;;;;;;14.34;96.28;101119.41;5014843;28;20057;-69
2022/06/19 09:28:12;;;;;;;16.33;3.55;;;;;;;14.53;94.67;101134.16;5005623;28;21030;-69
2022/06/19 09:30:48;;;;;;;15.18;2.92;;;;;;;14.73;93.32;101109.34;5019803;28;20052;-69
2022/06/19 09:33:32;;;;;;;17.42;2.80;;;;;;;14.23;94.45;101076.44;5009442;28;20045;-69
2022/06/19 09:36:26;;;;;;;16.77;2.97;;;;;;;14.26;93.90;101044.03;5016603;28;20041;-68
2022/06/19 09:39:00;;;;;;;8.70;2.45;;;;;;;14.45;92.67;101067.63;5010372;28;20276;-69
2022/06/19 09:41:38;;;;;;;9.40;2.35;;;;;;;14.21;91.22;101062.31;5043942;28;20147;-68
2022/06/19 09:44:32;;;;;;;11.60;2.63;;;;;;;14.43;91.40;101050.78;5052264;28;20082;-69
2022/06/19 09:47:22;;;;;;;19.45;3.13;;;;;;;14.75;91.37;101064.44;5058912;28;20119;-69
2022/06/19 09:49:56;;;;;;;14.90;2.83;;;;;;;14.66;88.15;101100.94;5047062;28;20040;-68
2022/06/19 09:52:27;;;;;;;11.88;2.80;;;;;;;14.70;87.79;101098.84;5049995;28;20526;-68
2022/06/19 09:55:01;;;;;;;6.50;2.60;;;;;;;16.05;85.32;101106.00;5047558;28;20536;-69
2022/06/19 09:57:36;;;;;;;15.80;2.80;;;;;;;16.78;83.44;101123.25;5046969;28;20056;-68
2022/06/19 10:00:05;;;;;;;16.48;2.90;;;;;;;17.60;80.21;101133.22;5048573;28;20083;-69
2022/06/19 10:02:54;;;;;;;12.10;3.28;;;;;;;17.34;76.40;101149.00;5069534;28;20567;-69
2022/06/19 10:06:18;;;;;;;15.10;2.78;;;;;;;17.14;74.68;101149.88;5048025;28;20222;-70
2022/06/19 10:08:52;;;;;;;14.20;3.17;;;;;;;17.75;74.77;101160.72;5044681;28;20052;-69
2022/06/19 10:11:34;;;;;;;8.75;2.28;;;;;;;18.45;72.61;101134.63;5028019;28;20498;-69
2022/06/19 10:14:12;;;;;;;8.80;2.20;;;;;;;17.29;69.19;101133.22;5046110;28;20064;-69
2022/06/19 10:16:58;;;;;;;11.50;2.20;;;;;;;17.25;73.89;101136.31;5021173;28;20086;-69
2022/06/19 10:19:33;;;;;;;11.27;2.25;;;;;;;17.97;74.02;101127.28;5044872;28;20098;-69
2022/06/19 10:22:13;;;;;;;11.30;2.10;;;;;;;17.51;73.39;101120.56;5046818;28;20502;-70
2022/06/19 10:25:03;;;;;;;10.32;2.20;;;;;;;17.10;74.15;101119.63;5047255;28;20056;-70
2022/06/19 10:27:43;;;;;;;8.45;2.10;;;;;;;17.46;73.57;101104.78;5045239;28;20055;-70
2022/06/19 10:30:25;;;;;;;8.88;2.08;;;;;;;17.72;72.18;101088.13;5042757;28;20068;-70
2022/06/19 10:33:13;;;;;;;11.10;2.50;;;;;;;18.55;71.77;101071.50;5047273;28;20064;-70
2022/06/19 10:35:50;;;;;;;6.38;1.38;;;;;;;18.34;68.23;101076.22;5046754;28;20048;-69
2022/06/19 10:38:42;;;;;;;4.70;1.90;;;;;;;18.61;66.00;101070.91;5045787;28;20083;-70
2022/06/19 10:41:08;;;;;;;;;;;;;;;18.77;65.53;101066.81;5048753;28;20110;-70
2022/06/19 10:44:05;;;;;;;7.00;1.63;;;;;;;18.57;64.73;101056.00;5054792;28;19924;-70
2022/06/19 10:46:32;;;;;;;6.35;1.60;;;;;;;19.05;66.11;101046.97;5065361;28;20091;-70
2022/06/19 10:49:32;;;;;;;5.07;1.67;;;;;;;18.94;61.28;101052.56;5057849;28;20047;-70
2022/06/19 10:52:05;;;;;;;6.97;2.33;;;;;;;19.22;64.41;101049.91;5010341;28;20056;-70
2022/06/19 10:54:45;;;;;;;7.97;1.65;;;;;;;19.50;59.89;101054.34;5027643;28;20960;-71
2022/06/19 10:57:15;;;;;;;8.20;1.80;;;;;;;18.85;63.50;101045.31;5021327;28;20057;-71
2022/06/19 10:59:41;;;;;;;6.60;1.60;;;;;;;19.73;58.52;101040.41;5024428;28;20124;-70
2022/06/19 11:05:28;;;;;;;9.50;1.30;;;;;;;17.81;63.91;101046.88;5027393;28;20049;-70
2022/06/19 11:07:53;;;;;;;6.75;1.50;;;;;;;18.33;62.54;101047.50;5027896;28;20037;-71
2022/06/19 11:10:27;;;;;;;6.25;1.40;;;;;;;18.61;62.53;101046.59;5020164;28;20144;-70
2022/06/19 11:12:56;;;;;;;3.72;1.58;;;;;;;19.36;64.50;101073.75;5024958;28;20049;-70
2022/06/19 11:15:25;;;;;;;3.17;1.42;;;;;;;19.54;59.82;101080.09;5025075;28;20888;-70
2022/06/19 11:18:06;;;;;;;7.63;1.25;;;;;;;20.31;59.61;101077.94;5027398;28;20044;-70
2022/06/19 11:20:31;;;;;;;6.50;1.38;;;;;;;20.09;58.52;101084.66;5028028;28;20032;-70
2022/06/19 11:23:05;;;;;;;7.45;1.35;;;;;;;20.15;62.72;101071.34;5026873;28;20184;-70
2022/06/19 11:25:34;;;;;;;7.45;1.55;;;;;;;20.56;59.03;101070.91;5027504;28;20064;-69
2022/06/19 11:28:11;;;;;;;5.60;1.65;;;;;;;20.44;63.07;101076.53;5031461;28;20126;-71
2022/06/19 11:30:46;;;;;;;5.55;1.30;;;;;;;20.74;57.77;101085.31;5043634;28;20038;-71
2022/06/19 11:33:15;;;;;;;3.03;1.40;;;;;;;20.12;59.67;101101.44;5051128;28;20335;-70
2022/06/19 11:35:47;;;;;;;6.82;1.70;;;;;;;19.31;61.88;101112.06;5046913;28;20116;-69
2022/06/19 11:38:15;;;;;;;5.20;1.30;;;;;;;19.08;63.04;101119.69;5059967;28;20040;-68
2022/06/19 11:40:48;;;;;;;8.52;1.75;;;;;;;19.81;62.20;101122.56;5052737;28;20109;-70
2022/06/19 11:43:29;;;;;;;5.43;1.08;;;;;;;19.66;63.19;101127.63;5052799;28;20033;-70
2022/06/19 11:46:02;;;;;;;5.75;1.70;;;;;;;18.94;59.43;101120.13;5046450;28;20860;-70
2022/06/19 11:48:28;;;;;;;5.15;1.52;;;;;;;20.01;60.91;101100.81;5051762;28;20036;-70